createdAt,value
2019-01-14T00:01:32.417Z,98.91
2019-01-14T00:04:01.553Z,99.45
2019-01-14T00:06:30.638Z,99.98
2019-01-14T00:09:00.009Z,99.04
2019-01-14T00:11:29.099Z,99.84
2019-01-14T00:13:58.315Z,99.91
2019-01-14T00:16:27.403Z,99.10
2019-01-14T00:18:56.534Z,99.34
2019-01-14T00:21:25.667Z,99.97
2019-01-14T00:23:54.757Z,99.32
2019-01-14T00:26:23.881Z,99.06
2019-01-14T00:28:52.969Z,99.47
2019-01-14T00:31:22.111Z,98.01
2019-01-14T00:33:52.296Z,96.92
2019-01-14T00:36:21.445Z,96.87
2019-01-14T00:38:50.540Z,94.82
2019-01-14T00:41:19.666Z,93.99
2019-01-14T00:43:48.760Z,94.17
2019-01-14T00:46:17.894Z,93.30
2019-01-14T00:48:47.012Z,92.75
2019-01-14T00:51:16.269Z,93.41
2019-01-14T00:53:45.318Z,92.90
2019-01-14T00:56:14.527Z,91.25
2019-01-14T00:58:43.661Z,90.71
2019-01-14T01:01:12.814Z,89.52
2019-01-14T01:03:41.979Z,88.65
2019-01-14T01:06:11.199Z,89.74
2019-01-14T01:08:40.554Z,88.71
2019-01-14T01:11:09.680Z,89.25
2019-01-14T01:13:38.782Z,87.79
2019-01-14T01:16:07.912Z,88.77
2019-01-14T01:18:37.048Z,88.41
2019-01-14T01:21:06.201Z,87.49
2019-01-14T01:23:35.830Z,87.62
2019-01-14T01:26:04.969Z,87.64
2019-01-14T01:28:34.080Z,87.30
2019-01-14T01:31:03.207Z,85.32
2019-01-14T01:33:32.291Z,85.04
2019-01-14T01:36:01.420Z,84.70
2019-01-14T01:38:30.432Z,84.47
2019-01-14T01:40:59.550Z,84.25
2019-01-14T01:43:28.683Z,83.39
2019-01-14T01:45:57.800Z,84.12
2019-01-14T01:48:26.894Z,85.24
2019-01-14T01:50:56.080Z,85.90
2019-01-14T01:53:25.157Z,86.58
2019-01-14T01:55:54.350Z,87.24
2019-01-14T01:58:24.148Z,86.41
2019-01-14T02:00:53.231Z,85.34
2019-01-14T02:03:22.352Z,83.64
2019-01-14T02:05:51.462Z,82.95
2019-01-14T02:08:20.619Z,81.23
2019-01-14T02:10:49.734Z,80.85
2019-01-14T02:13:18.855Z,80.84
2019-01-14T02:15:47.982Z,81.11
2019-01-14T02:18:17.073Z,80.40
2019-01-14T02:20:46.220Z,81.48
2019-01-14T02:23:15.332Z,81.18
2019-01-14T02:25:44.413Z,80.08
2019-01-14T02:28:13.632Z,80.14
2019-01-14T02:30:42.723Z,80.72
2019-01-14T02:33:11.861Z,81.71
2019-01-14T02:35:40.905Z,80.67
2019-01-14T02:38:10.037Z,81.46
2019-01-14T02:40:39.178Z,81.63
2019-01-14T02:43:08.302Z,80.88
2019-01-14T02:45:37.727Z,80.89
2019-01-14T02:48:06.848Z,81.35
2019-01-14T02:50:35.937Z,79.10
2019-01-14T02:53:05.066Z,78.32
2019-01-14T02:55:34.160Z,77.57
2019-01-14T02:58:03.299Z,75.16
2019-01-14T03:00:32.428Z,76.53
2019-01-14T03:03:01.551Z,74.78
2019-01-14T03:05:30.682Z,73.80
2019-01-14T03:07:59.778Z,74.40
2019-01-14T03:10:28.931Z,73.87
2019-01-14T03:12:58.064Z,73.90
2019-01-14T03:15:27.170Z,74.88
2019-01-14T03:17:56.265Z,74.96
2019-01-14T03:20:25.382Z,75.00
2019-01-14T03:22:54.495Z,75.72
2019-01-14T03:25:23.644Z,76.35
2019-01-14T03:27:52.749Z,77.97
2019-01-14T03:30:21.850Z,77.76
2019-01-14T03:32:50.958Z,77.67
2019-01-14T03:35:20.476Z,78.03
2019-01-14T03:37:49.562Z,77.88
2019-01-14T03:40:19.205Z,78.11
2019-01-14T03:42:48.294Z,77.26
2019-01-14T03:45:17.663Z,78.25
2019-01-14T03:47:46.747Z,77.78
2019-01-14T03:50:19.246Z,77.54
2019-01-14T03:52:48.366Z,78.40
2019-01-14T03:55:17.685Z,77.55
2019-01-14T03:57:46.771Z,78.47
2019-01-14T04:00:17.100Z,78.10
2019-01-14T04:02:46.527Z,79.00
2019-01-14T04:05:15.759Z,80.38
2019-01-14T04:07:44.956Z,79.60
2019-01-14T04:10:15.730Z,79.72
2019-01-14T04:12:45.122Z,80.19
2019-01-14T04:15:16.383Z,80.99
2019-01-14T04:17:45.861Z,80.71
2019-01-14T04:20:16.282Z,80.66
2019-01-14T04:22:45.705Z,81.29
2019-01-14T04:25:14.855Z,81.45
2019-01-14T04:27:43.932Z,81.46
2019-01-14T04:30:15.942Z,81.65
2019-01-14T04:32:45.022Z,81.79
2019-01-14T04:35:15.941Z,83.05
2019-01-14T04:37:45.152Z,82.08
2019-01-14T04:40:14.856Z,82.35
2019-01-14T04:42:44.230Z,81.86
2019-01-14T04:45:13.669Z,82.43
2019-01-14T04:47:42.777Z,82.19
2019-01-14T04:50:15.171Z,81.83
2019-01-14T04:52:44.273Z,80.93
2019-01-14T04:55:13.458Z,81.10
2019-01-14T04:57:42.538Z,80.57
2019-01-14T05:00:22.902Z,80.40
2019-01-14T05:02:52.089Z,80.97
2019-01-14T05:05:21.259Z,80.54
2019-01-14T05:07:50.461Z,81.72
2019-01-14T05:10:19.955Z,82.70
2019-01-14T05:12:49.348Z,83.61
2019-01-14T05:15:18.479Z,86.12
2019-01-14T05:17:47.602Z,85.52
2019-01-14T05:20:34.839Z,85.99
2019-01-14T05:23:04.161Z,86.80
2019-01-14T05:25:33.716Z,85.02
2019-01-14T05:28:02.809Z,83.69
2019-01-14T05:30:32.267Z,82.71
2019-01-14T05:33:01.354Z,83.01
2019-01-14T05:35:30.482Z,83.47
2019-01-14T05:37:59.583Z,82.99
2019-01-14T05:40:28.738Z,82.84
2019-01-14T05:42:57.849Z,83.05
2019-01-14T05:45:26.941Z,83.03
2019-01-14T05:47:56.058Z,84.04
2019-01-14T05:50:25.199Z,82.26
2019-01-14T05:52:54.608Z,81.64
2019-01-14T05:55:23.724Z,81.58
2019-01-14T05:57:53.048Z,80.99
2019-01-14T06:00:36.857Z,80.46
2019-01-14T06:03:06.528Z,81.27
2019-01-14T06:05:37.396Z,81.74
2019-01-14T06:08:06.552Z,80.63
2019-01-14T06:10:35.635Z,80.24
2019-01-14T06:13:04.766Z,80.15
2019-01-14T06:15:33.864Z,80.65
2019-01-14T06:18:02.990Z,81.03
2019-01-14T06:20:32.592Z,82.03
2019-01-14T06:23:02.643Z,81.12
2019-01-14T06:25:31.809Z,80.61
2019-01-14T06:28:00.960Z,80.87
2019-01-14T06:30:30.894Z,81.63
2019-01-14T06:33:00.118Z,80.29
2019-01-14T06:35:29.723Z,80.82
2019-01-14T06:37:58.943Z,81.37
2019-01-14T06:40:28.043Z,81.78
2019-01-14T06:42:58.169Z,81.63
2019-01-14T06:45:27.276Z,81.05
2019-01-14T06:47:56.425Z,81.34
2019-01-14T06:50:25.524Z,81.43
2019-01-14T06:52:54.684Z,81.45
2019-01-14T06:55:24.001Z,80.64
2019-01-14T06:57:53.181Z,82.43
2019-01-14T07:00:24.612Z,80.60
2019-01-14T07:02:54.408Z,81.00
2019-01-14T07:05:23.965Z,80.76
2019-01-14T07:07:59.456Z,81.00
2019-01-14T07:10:26.825Z,81.26
2019-01-14T07:12:56.053Z,81.48
2019-01-14T07:15:25.213Z,80.33
2019-01-14T07:17:54.336Z,80.11
2019-01-14T07:20:23.639Z,79.81
2019-01-14T07:22:52.755Z,80.29
2019-01-14T07:25:21.861Z,80.49
2019-01-14T07:27:50.994Z,80.94
2019-01-14T07:30:25.310Z,80.50
2019-01-14T07:32:54.532Z,81.24
2019-01-14T07:35:23.619Z,81.31
2019-01-14T07:37:52.865Z,81.17
2019-01-14T07:40:22.276Z,81.48
2019-01-14T07:42:51.409Z,81.78
2019-01-14T07:45:20.723Z,82.52
2019-01-14T07:47:49.946Z,82.49
2019-01-14T07:50:19.676Z,82.53
2019-01-14T07:52:49.515Z,82.71
2019-01-14T07:55:18.695Z,82.55
2019-01-14T07:57:47.981Z,83.65
2019-01-14T08:00:19.923Z,83.37
2019-01-14T08:02:50.479Z,82.77
2019-01-14T08:05:21.227Z,83.63
2019-01-14T08:07:51.746Z,82.97
2019-01-14T08:10:21.931Z,82.69
2019-01-14T08:12:51.088Z,82.45
2019-01-14T08:15:22.130Z,82.28
2019-01-14T08:17:51.350Z,82.17
2019-01-14T08:20:20.497Z,82.51
2019-01-14T08:22:49.626Z,82.27
2019-01-14T08:25:18.725Z,82.01
2019-01-14T08:27:47.901Z,82.34
2019-01-14T08:30:24.051Z,81.42
2019-01-14T08:32:53.163Z,81.44
2019-01-14T08:35:22.368Z,80.11
2019-01-14T08:37:51.554Z,79.82
2019-01-14T08:40:20.655Z,79.93
2019-01-14T08:42:50.034Z,79.90
2019-01-14T08:45:19.227Z,80.30
2019-01-14T08:47:48.315Z,79.75
2019-01-14T08:50:21.483Z,80.00
2019-01-14T08:52:51.427Z,79.63
2019-01-14T08:55:20.652Z,79.85
2019-01-14T08:57:54.448Z,80.23
2019-01-14T09:00:22.938Z,78.94
2019-01-14T09:02:52.218Z,79.04
2019-01-14T09:05:21.423Z,78.98
2019-01-14T09:07:50.601Z,78.96
2019-01-14T09:10:23.534Z,78.96
2019-01-14T09:12:52.766Z,78.63
2019-01-14T09:15:22.036Z,78.74
2019-01-14T09:17:51.158Z,78.75
2019-01-14T09:20:22.279Z,77.42
2019-01-14T09:22:51.596Z,78.11
2019-01-14T09:25:20.713Z,78.07
2019-01-14T09:27:49.846Z,78.85
2019-01-14T09:30:36.972Z,75.47
2019-01-14T09:33:06.125Z,76.71
2019-01-14T09:35:35.285Z,77.86
2019-01-14T09:38:04.629Z,77.54
2019-01-14T09:40:33.773Z,77.74
2019-01-14T09:43:03.024Z,81.53
2019-01-14T09:45:32.117Z,85.12
2019-01-14T09:48:01.288Z,86.26
2019-01-14T09:50:30.383Z,87.98
2019-01-14T09:52:59.476Z,90.80
2019-01-14T09:55:28.697Z,93.63
2019-01-14T09:57:57.831Z,94.12
2019-01-14T10:00:26.925Z,93.74
2019-01-14T10:02:56.061Z,93.93
2019-01-14T10:05:25.212Z,93.21
2019-01-14T10:07:54.352Z,92.18
2019-01-14T10:10:23.470Z,90.87
2019-01-14T10:12:52.572Z,89.74
2019-01-14T10:15:23.974Z,88.43
2019-01-14T10:17:59.390Z,83.98
2019-01-14T10:20:28.778Z,80.88
2019-01-14T10:22:58.579Z,79.67
2019-01-14T10:25:27.731Z,78.42
2019-01-14T10:27:56.868Z,78.84
2019-01-14T10:30:25.958Z,76.44
2019-01-14T10:32:55.087Z,76.39
2019-01-14T10:35:24.198Z,74.57
2019-01-14T10:37:53.311Z,74.19
2019-01-14T10:40:22.431Z,73.85
2019-01-14T10:42:51.579Z,74.06
2019-01-14T10:45:22.336Z,74.48
2019-01-14T10:47:51.831Z,73.58
2019-01-14T10:50:21.239Z,74.31
2019-01-14T10:52:50.379Z,72.76
2019-01-14T10:55:19.536Z,71.11
2019-01-14T10:57:48.680Z,72.32
2019-01-14T11:00:23.135Z,74.53
2019-01-14T11:02:52.786Z,75.21
2019-01-14T11:05:24.611Z,81.02
2019-01-14T11:07:53.733Z,83.36
2019-01-14T11:10:22.930Z,84.17
2019-01-14T11:12:52.146Z,86.08
2019-01-14T11:15:21.456Z,87.34
2019-01-14T11:17:50.584Z,88.22
2019-01-14T11:20:24.860Z,88.86
2019-01-14T11:22:54.191Z,88.47
2019-01-14T11:25:23.356Z,86.75
2019-01-14T11:27:52.455Z,84.38
2019-01-14T11:30:24.209Z,82.16
2019-01-14T11:32:53.308Z,80.61
2019-01-14T11:35:22.400Z,80.31
2019-01-14T11:37:51.536Z,78.41
2019-01-14T11:40:23.025Z,78.05
2019-01-14T11:42:52.156Z,76.94
2019-01-14T11:45:21.238Z,77.60
2019-01-14T11:47:50.332Z,78.02
2019-01-14T11:50:19.463Z,76.13
2019-01-14T11:52:48.766Z,74.35
2019-01-14T11:55:17.800Z,73.66
2019-01-14T11:57:46.987Z,73.29
2019-01-14T12:00:18.746Z,72.81
2019-01-14T12:02:57.944Z,73.15
2019-01-14T12:05:27.093Z,72.08
2019-01-14T12:07:56.215Z,72.08
2019-01-14T12:10:25.327Z,70.21
2019-01-14T12:12:54.444Z,70.78
2019-01-14T12:15:25.797Z,70.88
2019-01-14T12:17:54.885Z,70.65
2019-01-14T12:20:24.003Z,70.22
2019-01-14T12:22:53.083Z,69.86
2019-01-14T12:25:22.222Z,70.71
2019-01-14T12:27:51.596Z,71.02
2019-01-14T12:30:28.596Z,71.49
2019-01-14T12:32:57.739Z,71.39
2019-01-14T12:35:26.857Z,71.44
2019-01-14T12:37:56.323Z,70.91
2019-01-14T12:40:25.423Z,71.93
2019-01-14T12:42:54.530Z,70.34
2019-01-14T12:45:24.217Z,71.59
2019-01-14T12:47:53.576Z,72.51
2019-01-14T12:50:22.681Z,72.73
2019-01-14T12:52:51.767Z,74.06
2019-01-14T12:55:21.374Z,74.14
2019-01-14T12:57:50.528Z,75.50
2019-01-14T13:00:21.982Z,77.99
2019-01-14T13:02:51.512Z,79.16
2019-01-14T13:05:21.231Z,80.48
2019-01-14T13:07:50.517Z,82.37
2019-01-14T13:10:19.606Z,84.88
2019-01-14T13:12:48.814Z,85.63
2019-01-14T13:15:20.576Z,84.46
2019-01-14T13:17:50.031Z,84.52
2019-01-14T13:20:19.249Z,84.07
2019-01-14T13:22:48.359Z,85.14
2019-01-14T13:25:17.587Z,86.19
2019-01-14T13:27:47.070Z,88.75
2019-01-14T13:30:24.377Z,91.38
2019-01-14T13:32:53.813Z,92.79
2019-01-14T13:35:22.996Z,93.31
2019-01-14T13:37:52.473Z,93.24
2019-01-14T13:40:21.596Z,93.61
2019-01-14T13:42:50.689Z,93.29
2019-01-14T13:45:20.972Z,93.54
2019-01-14T13:47:50.533Z,93.83
2019-01-14T13:50:21.721Z,93.82
2019-01-14T13:52:50.807Z,97.38
2019-01-14T13:55:21.743Z,100.00
2019-01-14T13:57:52.370Z,100.00
2019-01-14T14:00:23.353Z,100.00
2019-01-14T14:02:53.016Z,100.00
2019-01-14T14:05:22.152Z,100.00
2019-01-14T14:07:51.551Z,100.00
2019-01-14T14:10:31.388Z,99.54
2019-01-14T14:13:00.611Z,99.21
2019-01-14T14:15:29.816Z,99.11
2019-01-14T14:17:58.988Z,98.76
2019-01-14T14:20:28.122Z,98.24
2019-01-14T14:22:57.241Z,97.33
2019-01-14T14:25:26.416Z,96.43
2019-01-14T14:27:55.486Z,94.22
2019-01-14T14:30:27.796Z,93.04
2019-01-14T14:32:56.919Z,91.64
2019-01-14T14:35:26.005Z,91.83
2019-01-14T14:38:00.966Z,89.18
2019-01-14T14:40:26.061Z,86.92
2019-01-14T14:42:55.475Z,86.52
2019-01-14T14:45:24.593Z,85.55
2019-01-14T14:47:53.675Z,84.56
2019-01-14T14:50:22.810Z,84.31
2019-01-14T14:52:51.944Z,82.76
2019-01-14T14:55:21.142Z,82.70
2019-01-14T14:57:50.593Z,84.41
2019-01-14T15:00:21.083Z,86.40
2019-01-14T15:02:50.194Z,88.45
2019-01-14T15:05:19.835Z,88.74
2019-01-14T15:07:48.932Z,90.74
2019-01-14T15:10:19.891Z,93.03
2019-01-14T15:12:49.053Z,94.07
2019-01-14T15:15:20.845Z,96.33
2019-01-14T15:17:50.020Z,98.18
2019-01-14T15:20:20.954Z,100.00
2019-01-14T15:22:49.994Z,100.00
2019-01-14T15:25:19.121Z,100.00
2019-01-14T15:27:48.236Z,100.00
2019-01-14T15:30:23.378Z,100.00
2019-01-14T15:32:52.487Z,100.00
2019-01-14T15:35:21.867Z,100.00
2019-01-14T15:37:50.992Z,100.00
2019-01-14T15:40:20.289Z,100.00
2019-01-14T15:42:49.524Z,100.00
2019-01-14T15:45:19.274Z,100.00
2019-01-14T15:47:48.471Z,100.00
2019-01-14T15:50:17.671Z,100.00
2019-01-14T15:52:46.956Z,100.00
2019-01-14T15:55:19.020Z,100.00
2019-01-14T15:57:48.324Z,100.00
2019-01-14T16:00:18.349Z,100.00
2019-01-14T16:02:47.779Z,100.00
2019-01-14T16:05:17.127Z,100.00
2019-01-14T16:07:46.242Z,100.00
2019-01-14T16:10:17.508Z,100.00
2019-01-14T16:12:46.906Z,100.00
2019-01-14T16:15:16.222Z,100.00
2019-01-14T16:17:46.467Z,100.00
2019-01-14T16:20:17.709Z,100.00
2019-01-14T16:22:47.104Z,100.00
2019-01-14T16:25:16.253Z,100.00
2019-01-14T16:27:45.311Z,99.37
2019-01-14T16:30:16.890Z,98.90
2019-01-14T16:32:45.972Z,97.86
2019-01-14T16:35:15.173Z,97.64
2019-01-14T16:37:44.368Z,97.37
2019-01-14T16:40:17.895Z,96.91
2019-01-14T16:42:44.748Z,96.58
2019-01-14T16:45:16.483Z,96.06
2019-01-14T16:47:45.579Z,96.03
2019-01-14T16:50:15.277Z,95.26
2019-01-14T16:52:44.374Z,94.13
2019-01-14T16:55:15.156Z,94.01
2019-01-14T16:57:44.350Z,91.91
2019-01-14T17:00:16.511Z,91.46
2019-01-14T17:02:45.660Z,90.67
2019-01-14T17:05:15.256Z,90.60
2019-01-14T17:07:44.458Z,89.92
2019-01-14T17:10:14.782Z,90.94
2019-01-14T17:12:43.981Z,93.21
2019-01-14T17:15:13.717Z,95.59
2019-01-14T17:17:42.964Z,96.02
2019-01-14T17:20:15.473Z,95.91
2019-01-14T17:22:44.903Z,95.67
2019-01-14T17:25:14.647Z,96.24
2019-01-14T17:27:45.218Z,95.43
2019-01-14T17:30:15.321Z,95.39
2019-01-14T17:32:44.450Z,94.84
2019-01-14T17:35:13.858Z,94.08
2019-01-14T17:37:43.292Z,94.27
2019-01-14T17:40:17.424Z,94.32
2019-01-14T17:42:46.712Z,94.02
2019-01-14T17:45:15.886Z,94.13
2019-01-14T17:47:45.245Z,94.29
2019-01-14T17:50:16.731Z,93.86
2019-01-14T17:52:45.833Z,93.26
2019-01-14T17:55:15.281Z,93.98
2019-01-14T17:57:44.387Z,94.43
2019-01-14T18:00:17.079Z,94.99
2019-01-14T18:02:46.277Z,95.72
2019-01-14T18:05:15.407Z,96.34
2019-01-14T18:07:44.519Z,96.51
2019-01-14T18:10:15.230Z,96.58
2019-01-14T18:12:44.317Z,96.99
2019-01-14T18:15:23.835Z,97.05
2019-01-14T18:17:52.916Z,96.51
2019-01-14T18:20:22.030Z,96.98
2019-01-14T18:22:51.594Z,97.33
2019-01-14T18:25:20.667Z,98.13
2019-01-14T18:27:49.748Z,98.61
2019-01-14T18:30:20.662Z,99.15
2019-01-14T18:32:49.810Z,98.26
2019-01-14T18:35:18.998Z,98.35
2019-01-14T18:37:48.360Z,98.23
2019-01-14T18:40:19.002Z,98.09
2019-01-14T18:42:48.581Z,97.59
2019-01-14T18:45:19.825Z,97.23
2019-01-14T18:47:49.434Z,97.69
2019-01-14T18:50:20.823Z,97.54
2019-01-14T18:52:50.255Z,97.12
2019-01-14T18:55:19.567Z,96.27
2019-01-14T18:57:49.038Z,95.31
2019-01-14T19:00:20.432Z,94.13
2019-01-14T19:02:49.847Z,93.48
2019-01-14T19:05:20.200Z,93.13
2019-01-14T19:07:51.319Z,92.98
2019-01-14T19:10:20.542Z,92.21
2019-01-14T19:12:49.667Z,91.44
2019-01-14T19:15:20.758Z,91.04
2019-01-14T19:17:50.891Z,91.21
2019-01-14T19:20:25.594Z,91.43
2019-01-14T19:22:55.717Z,91.17
2019-01-14T19:25:26.991Z,91.61
2019-01-14T19:27:56.310Z,90.80
2019-01-14T19:30:25.948Z,89.92
2019-01-14T19:32:55.803Z,90.15
2019-01-14T19:35:25.248Z,89.92
2019-01-14T19:37:54.437Z,89.57
2019-01-14T19:40:23.777Z,89.62
2019-01-14T19:42:53.550Z,88.77
2019-01-14T19:45:23.659Z,88.91
2019-01-14T19:47:53.304Z,90.60
2019-01-14T19:50:24.953Z,91.56
2019-01-14T19:52:56.241Z,92.22
2019-01-14T19:55:26.596Z,93.31
2019-01-14T19:57:55.833Z,94.12
2019-01-14T20:00:28.290Z,94.78
2019-01-14T20:02:57.743Z,95.27
2019-01-14T20:05:26.993Z,96.37
2019-01-14T20:07:56.570Z,97.77
2019-01-14T20:10:25.723Z,99.07
2019-01-14T20:12:55.854Z,99.58
2019-01-14T20:15:25.333Z,99.57
2019-01-14T20:17:54.790Z,99.58
2019-01-14T20:20:25.021Z,99.54
2019-01-14T20:22:54.480Z,99.92
2019-01-14T20:25:23.567Z,100.00
2019-01-14T20:27:52.787Z,100.00
2019-01-14T20:30:23.753Z,99.64
2019-01-14T20:32:53.260Z,100.00
2019-01-14T20:35:22.374Z,100.00
2019-01-14T20:37:51.780Z,99.74
2019-01-14T20:40:29.101Z,99.56
2019-01-14T20:42:58.506Z,99.38
2019-01-14T20:45:28.193Z,99.48
2019-01-14T20:47:58.321Z,98.98
2019-01-14T20:50:28.405Z,98.94
2019-01-14T20:52:57.533Z,98.70
2019-01-14T20:55:26.676Z,98.16
2019-01-14T20:57:56.427Z,98.18
2019-01-14T21:00:25.970Z,97.57
2019-01-14T21:02:55.192Z,97.39
2019-01-14T21:05:25.575Z,97.50
2019-01-14T21:07:55.534Z,97.39
2019-01-14T21:10:24.881Z,97.33
2019-01-14T21:12:56.549Z,97.38
2019-01-14T21:15:25.834Z,96.38
2019-01-14T21:17:55.052Z,96.51
2019-01-14T21:20:25.653Z,95.96
2019-01-14T21:22:55.873Z,95.80
2019-01-14T21:25:25.109Z,95.15
2019-01-14T21:27:54.306Z,94.37
2019-01-14T21:30:25.716Z,93.80
2019-01-14T21:32:54.932Z,93.53
2019-01-14T21:35:24.521Z,93.06
2019-01-14T21:37:55.798Z,92.78
2019-01-14T21:40:25.022Z,93.37
2019-01-14T21:42:54.338Z,93.04
2019-01-14T21:45:23.704Z,92.04
2019-01-14T21:47:52.834Z,91.47
2019-01-14T21:50:22.070Z,90.85
2019-01-14T21:52:51.281Z,90.37
2019-01-14T21:55:22.333Z,89.97
2019-01-14T21:57:51.457Z,89.53
2019-01-14T22:00:22.467Z,89.69
2019-01-14T22:02:51.597Z,89.43
2019-01-14T22:05:20.727Z,89.18
2019-01-14T22:07:49.961Z,89.70
2019-01-14T22:10:21.377Z,90.32
2019-01-14T22:12:50.505Z,90.54
2019-01-14T22:15:19.593Z,91.30
2019-01-14T22:17:48.790Z,90.88
2019-01-14T22:20:20.538Z,91.11
2019-01-14T22:22:49.710Z,90.59
2019-01-14T22:25:18.845Z,90.26
2019-01-14T22:27:48.010Z,90.07
2019-01-14T22:30:19.627Z,89.87
2019-01-14T22:32:48.931Z,89.36
2019-01-14T22:35:18.042Z,90.53
2019-01-14T22:37:47.558Z,89.56
2019-01-14T22:40:16.860Z,89.65
2019-01-14T22:42:45.970Z,88.94
2019-01-14T22:45:15.357Z,89.05
2019-01-14T22:47:44.467Z,89.24
2019-01-14T22:50:15.282Z,88.97
2019-01-14T22:52:44.450Z,89.01
2019-01-14T22:55:13.798Z,87.93
2019-01-14T22:57:42.945Z,87.96
2019-01-14T23:00:27.748Z,87.59
2019-01-14T23:03:00.200Z,87.77
2019-01-14T23:05:29.303Z,87.38
2019-01-14T23:07:58.344Z,87.21
2019-01-14T23:10:27.477Z,87.22
2019-01-14T23:12:56.640Z,88.10
2019-01-14T23:15:25.742Z,88.45
2019-01-14T23:17:54.871Z,88.26
2019-01-14T23:20:24.031Z,88.43
2019-01-14T23:22:53.458Z,88.39
2019-01-14T23:25:22.599Z,88.00
2019-01-14T23:27:51.721Z,88.90
2019-01-14T23:30:20.860Z,88.33
2019-01-14T23:32:49.992Z,88.77
2019-01-14T23:35:19.116Z,88.05
2019-01-14T23:37:48.254Z,88.57
2019-01-14T23:40:17.344Z,88.65
2019-01-14T23:42:46.533Z,89.25
2019-01-14T23:45:15.638Z,89.43
2019-01-14T23:47:44.769Z,89.44
2019-01-14T23:50:15.331Z,89.48
2019-01-14T23:52:44.445Z,89.66
2019-01-14T23:55:13.584Z,89.61
2019-01-14T23:57:43.060Z,88.93
